Time;durP1;ratioP1;P1;durP2;ratioP2;P2;SDS_P1;SDS_P2;PMS_P1;PMS_P2;Temp;Humidity;BMP_temperature;BMP_pressure;BME280_temperature;BME280_humidity;BME280_pressure;Samples;Min_cycle;Max_cycle;Signal;HPM_P1;HPM_P2
2021/07/04 00:01:20;;;;;;;4.30;3.83;;;14.10;81.40;;;;;;4952262;28;20267;-86
2021/07/04 00:03:46;;;;;;;7.13;3.30;;;14.10;81.40;;;;;;4952365;28;20190;-86
2021/07/04 00:06:12;;;;;;;3.87;3.43;;;14.10;81.20;;;;;;4953228;28;20211;-86
2021/07/04 00:08:37;;;;;;;5.63;3.17;;;14.10;80.90;;;;;;4951743;28;20310;-86
2021/07/04 00:11:08;;;;;;;4.73;3.50;;;14.10;80.70;;;;;;4950680;28;20253;-85
2021/07/04 00:13:35;;;;;;;8.30;3.70;;;14.00;80.80;;;;;;4951759;28;20171;-85
2021/07/04 00:16:02;;;;;;;3.37;3.07;;;14.00;80.80;;;;;;4951725;28;20198;-85
2021/07/04 00:18:30;;;;;;;4.80;3.63;;;14.00;80.80;;;;;;4951836;28;20250;-85
2021/07/04 00:20:58;;;;;;;7.00;3.57;;;13.90;80.90;;;;;;4966620;28;20176;-85
2021/07/04 00:23:25;;;;;;;3.57;3.27;;;13.90;81.10;;;;;;4951927;28;20152;-85
2021/07/04 00:25:53;;;;;;;5.60;3.50;;;13.80;81.30;;;;;;4951526;28;20171;-85
2021/07/04 00:28:18;;;;;;;3.63;3.33;;;13.80;81.30;;;;;;4951663;28;20195;-85
2021/07/04 00:30:44;;;;;;;3.57;3.27;;;13.80;81.30;;;;;;4954488;28;20551;-85
2021/07/04 00:33:10;;;;;;;3.50;3.20;;;13.80;81.10;;;;;;4954769;28;20249;-85
2021/07/04 00:35:36;;;;;;;3.47;3.17;;;13.70;81.30;;;;;;4969601;28;20175;-85
2021/07/04 00:38:04;;;;;;;4.37;3.20;;;13.70;81.80;;;;;;4955251;28;20696;-85
2021/07/04 00:40:30;;;;;;;4.90;4.50;;;13.60;82.80;;;;;;4953417;28;20180;-85
2021/07/04 00:42:55;;;;;;;6.03;4.77;;;13.30;83.30;;;;;;4955015;28;20182;-85
2021/07/04 00:45:24;;;;;;;9.07;4.50;;;13.20;84.00;;;;;;4953456;28;20207;-85
2021/07/04 00:47:51;;;;;;;11.17;5.10;;;13.10;84.40;;;;;;4954731;28;20175;-85
2021/07/04 00:50:18;;;;;;;5.67;5.17;;;12.90;85.40;;;;;;4954485;28;20195;-85
2021/07/04 00:52:44;;;;;;;14.93;6.20;;;12.80;85.60;;;;;;4954394;28;20203;-85
2021/07/04 00:55:13;;;;;;;7.30;6.07;;;12.80;85.80;;;;;;4969420;28;20187;-85
2021/07/04 00:57:38;;;;;;;10.43;5.00;;;12.70;86.20;;;;;;4954477;28;20175;-85
2021/07/04 01:00:08;;;;;;;15.60;5.90;;;12.70;86.30;;;;;;4954384;28;20272;-85
2021/07/04 01:02:34;;;;;;;5.93;5.33;;;12.70;86.40;;;;;;4954635;28;20699;-85
2021/07/04 01:04:59;;;;;;;14.03;5.20;;;12.70;86.70;;;;;;4969137;28;20176;-85
2021/07/04 01:07:25;;;;;;;14.53;5.23;;;12.50;87.00;;;;;;4954265;28;20176;-85
2021/07/04 01:09:52;;;;;;;6.30;5.80;;;12.30;87.50;;;;;;4969252;28;20290;-85
2021/07/04 01:12:18;;;;;;;6.87;5.47;;;12.30;87.90;;;;;;4968966;28;20210;-85
2021/07/04 01:14:44;;;;;;;6.20;4.90;;;12.30;87.60;;;;;;4954219;28;20172;-85
2021/07/04 01:17:09;;;;;;;5.10;3.83;;;12.40;87.60;;;;;;4954216;28;20207;-86
2021/07/04 01:19:36;;;;;;;5.63;3.60;;;12.40;87.50;;;;;;4954082;28;20230;-85
2021/07/04 01:22:03;;;;;;;5.60;4.10;;;12.30;87.50;;;;;;4952903;28;20551;-85
2021/07/04 01:24:29;;;;;;;7.93;5.10;;;12.30;87.60;;;;;;4954055;28;20172;-85
2021/07/04 01:26:54;;;;;;;4.67;4.27;;;12.30;87.80;;;;;;4953038;28;20241;-85
2021/07/04 01:29:20;;;;;;;4.03;3.63;;;12.30;87.80;;;;;;4952750;28;20204;-85
2021/07/04 01:31:47;;;;;;;5.07;3.40;;;12.40;87.60;;;;;;4953863;28;20195;-86
2021/07/04 01:34:12;;;;;;;3.00;2.80;;;12.50;87.50;;;;;;4969101;28;20219;-85
2021/07/04 01:36:39;;;;;;;3.30;3.00;;;12.60;87.10;;;;;;4953908;28;20172;-85
2021/07/04 01:39:06;;;;;;;3.53;3.23;;;12.40;87.10;;;;;;4954112;28;20192;-85
2021/07/04 01:41:35;;;;;;;5.77;3.30;;;12.30;87.30;;;;;;4953352;28;20175;-85
2021/07/04 01:44:01;;;;;;;3.90;3.30;;;12.40;87.40;;;;;;4968742;28;20275;-85
2021/07/04 01:46:26;;;;;;;3.93;2.80;;;12.50;87.40;;;;;;4953684;28;20211;-85
2021/07/04 01:48:52;;;;;;;6.17;3.63;;;12.50;87.20;;;;;;4953705;28;20191;-85
2021/07/04 01:51:18;;;;;;;3.87;3.30;;;12.50;87.10;;;;;;4968385;28;20310;-85
2021/07/04 01:53:44;;;;;;;3.30;3.00;;;12.70;86.80;;;;;;4953894;28;20180;-85
2021/07/04 01:56:10;;;;;;;2.70;2.40;;;12.70;86.70;;;;;;4968432;28;20555;-85
2021/07/04 01:58:37;;;;;;;2.60;2.40;;;12.70;86.70;;;;;;4968505;28;20572;-85
2021/07/04 02:01:06;;;;;;;2.77;2.57;;;12.70;86.80;;;;;;4953496;28;20164;-85
2021/07/04 02:03:31;;;;;;;2.83;2.63;;;12.60;86.80;;;;;;4968348;28;20576;-86
2021/07/04 02:05:57;;;;;;;4.97;2.67;;;12.70;86.80;;;;;;4953546;28;20210;-85
2021/07/04 02:08:23;;;;;;;2.93;2.73;;;12.80;86.70;;;;;;4952236;28;20214;-86
2021/07/04 02:10:49;;;;;;;4.27;2.60;;;12.70;86.50;;;;;;4953454;28;20552;-86
2021/07/04 02:13:15;;;;;;;6.57;2.67;;;12.60;86.70;;;;;;4968107;28;20178;-85
2021/07/04 02:15:41;;;;;;;2.70;2.27;;;12.40;87.00;;;;;;4953580;28;20171;-85
2021/07/04 02:18:10;;;;;;;2.97;2.77;;;12.40;87.30;;;;;;4953358;28;20654;-85
2021/07/04 02:20:49;;;;;;;3.70;2.17;;;12.30;87.60;;;;;;4953378;28;20171;-85
2021/07/04 02:23:22;;;;;;;4.33;2.27;;;12.30;88.00;;;;;;4953302;29;20170;-85
2021/07/04 02:25:49;;;;;;;3.33;2.13;;;12.30;88.10;;;;;;4953160;28;20245;-85
2021/07/04 02:28:18;;;;;;;2.50;2.30;;;12.30;88.20;;;;;;4952990;28;20175;-85
2021/07/04 02:30:44;;;;;;;4.60;2.57;;;12.30;87.90;;;;;;4953158;28;20171;-85
2021/07/04 02:33:13;;;;;;;2.60;2.40;;;12.30;88.00;;;;;;4952961;28;20210;-85
2021/07/04 02:35:43;;;;;;;2.80;2.50;;;12.30;88.00;;;;;;4968059;28;20241;-85
2021/07/04 02:38:09;;;;;;;2.90;2.70;;;12.30;87.90;;;;;;4951682;28;20187;-85
2021/07/04 02:40:36;;;;;;;3.40;2.83;;;12.40;88.00;;;;;;4967879;28;20178;-85
2021/07/04 02:43:03;;;;;;;4.50;3.43;;;12.30;87.90;;;;;;4953000;28;20175;-85
2021/07/04 02:45:29;;;;;;;5.87;3.93;;;12.20;88.10;;;;;;4952918;28;20168;-85
2021/07/04 02:47:54;;;;;;;5.83;3.23;;;12.30;88.40;;;;;;4967639;28;20182;-85
2021/07/04 02:50:21;;;;;;;3.83;3.53;;;12.30;88.40;;;;;;4951615;28;20203;-85
2021/07/04 02:52:52;;;;;;;3.70;3.40;;;12.40;88.50;;;;;;4950538;28;20199;-85
2021/07/04 02:55:19;;;;;;;7.30;3.23;;;12.30;88.40;;;;;;4967594;28;20171;-85
2021/07/04 02:57:46;;;;;;;3.60;3.30;;;12.20;88.40;;;;;;4952698;28;20168;-85
2021/07/04 03:00:14;;;;;;;5.90;3.10;;;12.00;88.80;;;;;;4952685;28;20286;-85
2021/07/04 03:02:40;;;;;;;6.77;3.37;;;11.90;89.30;;;;;;4952619;28;20176;-85
2021/07/04 03:05:07;;;;;;;11.53;4.10;;;11.70;89.60;;;;;;4952695;28;20180;-85
2021/07/04 03:07:33;;;;;;;10.87;4.13;;;11.70;89.80;;;;;;4952536;28;20250;-85
2021/07/04 03:09:59;;;;;;;32.20;5.07;;;11.60;89.90;;;;;;4952492;28;20286;-85
2021/07/04 03:12:25;;;;;;;12.47;5.13;;;11.60;90.10;;;;;;4952561;28;20286;-85
2021/07/04 03:14:51;;;;;;;20.27;5.43;;;11.60;90.40;;;;;;4952605;28;20168;-85
2021/07/04 03:17:16;;;;;;;13.67;5.93;;;11.60;90.70;;;;;;4952742;28;20583;-85
2021/07/04 03:19:42;;;;;;;17.13;5.70;;;11.50;90.70;;;;;;4952405;28;20207;-85
2021/07/04 03:22:08;;;;;;;8.97;5.47;;;11.50;90.80;;;;;;4967296;28;20183;-85
2021/07/04 03:24:33;;;;;;;15.40;5.97;;;11.50;90.80;;;;;;4952427;28;20176;-85
2021/07/04 03:26:59;;;;;;;16.67;6.40;;;11.30;90.90;;;;;;4952451;28;20241;-85
2021/07/04 03:29:25;;;;;;;7.47;5.80;;;11.40;91.10;;;;;;4952352;28;20286;-85
2021/07/04 03:31:50;;;;;;;33.57;7.93;;;11.50;91.10;;;;;;4951071;28;20199;-85
2021/07/04 03:34:16;;;;;;;43.67;7.50;;;11.50;91.10;;;;;;4952275;28;20218;-85
2021/07/04 03:36:42;;;;;;;14.17;7.63;;;11.50;91.10;;;;;;4967071;28;20175;-85
2021/07/04 03:39:08;;;;;;;12.57;8.17;;;11.40;91.10;;;;;;4951016;28;20616;-85
2021/07/04 03:41:33;;;;;;;14.90;8.60;;;11.40;91.40;;;;;;4952246;28;20175;-85
2021/07/04 03:44:00;;;;;;;10.37;8.50;;;11.50;91.40;;;;;;4967114;28;20192;-85
2021/07/04 03:46:26;;;;;;;10.53;8.90;;;11.60;91.40;;;;;;4950905;28;20202;-85
2021/07/04 03:48:52;;;;;;;15.10;9.33;;;11.70;91.40;;;;;;4952238;28;20195;-85
2021/07/04 03:51:18;;;;;;;15.00;9.60;;;11.90;91.20;;;;;;4950866;28;20214;-85
2021/07/04 03:53:44;;;;;;;21.97;10.23;;;12.00;90.90;;;;;;4952151;28;20179;-85
2021/07/04 03:56:10;;;;;;;13.40;9.20;;;12.20;90.70;;;;;;4950686;28;20267;-85
2021/07/04 03:58:35;;;;;;;13.17;7.83;;;12.30;90.40;;;;;;4951968;28;20188;-86
2021/07/04 04:01:01;;;;;;;19.13;8.93;;;12.30;90.30;;;;;;4952134;28;20171;-85
2021/07/04 04:03:27;;;;;;;22.83;9.33;;;12.30;90.20;;;;;;4968175;28;20171;-85
2021/07/04 04:05:55;;;;;;;18.67;8.90;;;12.30;90.30;;;;;;4954367;28;20533;-85
2021/07/04 04:08:21;;;;;;;14.93;9.30;;;12.30;90.60;;;;;;4970030;28;20202;-85
2021/07/04 04:10:47;;;;;;;22.90;11.43;;;12.30;90.60;;;;;;4970227;28;20176;-86
2021/07/04 04:13:12;;;;;;;15.10;10.47;;;12.40;90.50;;;;;;4953945;28;20212;-86
2021/07/04 04:15:38;;;;;;;21.00;10.47;;;12.50;90.50;;;;;;4955163;28;20171;-86
2021/07/04 04:18:04;;;;;;;16.87;9.87;;;12.70;90.50;;;;;;4955028;28;20172;-85
2021/07/04 04:20:30;;;;;;;20.60;10.60;;;12.90;90.30;;;;;;4955001;28;20246;-85
2021/07/04 04:22:55;;;;;;;30.83;11.43;;;12.90;90.10;;;;;;4953765;28;20180;-85
2021/07/04 04:25:22;;;;;;;15.17;10.50;;;13.00;90.30;;;;;;4955200;28;20238;-85
2021/07/04 04:27:47;;;;;;;17.40;10.87;;;13.00;90.30;;;;;;4955230;28;20184;-85
2021/07/04 04:30:15;;;;;;;16.70;10.47;;;13.10;90.40;;;;;;4954883;28;20581;-85
2021/07/04 04:32:41;;;;;;;20.00;10.50;;;13.20;90.50;;;;;;4954757;28;20211;-86
2021/07/04 04:35:08;;;;;;;20.43;11.30;;;13.30;90.50;;;;;;4953640;29;20183;-85
2021/07/04 04:37:34;;;;;;;15.50;9.77;;;13.50;90.60;;;;;;4955084;28;20191;-85
2021/07/04 04:39:59;;;;;;;13.03;8.87;;;13.70;90.50;;;;;;4969625;28;20199;-85
2021/07/04 04:42:25;;;;;;;15.77;11.17;;;13.80;90.30;;;;;;4953527;28;20179;-86
2021/07/04 04:44:51;;;;;;;16.87;12.00;;;13.80;90.20;;;;;;4953528;28;20191;-86
2021/07/04 04:47:17;;;;;;;15.00;10.93;;;13.90;90.50;;;;;;4953397;29;20290;-85
2021/07/04 04:49:42;;;;;;;23.27;11.80;;;14.00;90.50;;;;;;4954534;28;20199;-85
2021/07/04 04:52:08;;;;;;;12.03;9.80;;;14.00;90.50;;;;;;4954420;28;20547;-85
2021/07/04 04:54:34;;;;;;;17.93;11.67;;;14.20;90.50;;;;;;4954561;28;20184;-85
2021/07/04 04:57:05;;;;;;;18.23;12.70;;;14.20;90.40;;;;;;4953341;28;20201;-85
2021/07/04 04:59:35;;;;;;;24.27;13.07;;;14.30;90.70;;;;;;4954922;28;20195;-86
2021/07/04 05:02:01;;;;;;;18.23;13.00;;;14.40;91.20;;;;;;4953643;29;20211;-86
2021/07/04 05:04:26;;;;;;;19.37;13.93;;;14.50;91.40;;;;;;4954511;28;20203;-85
2021/07/04 05:06:52;;;;;;;22.00;15.03;;;14.60;91.60;;;;;;4954459;28;20180;-86
2021/07/04 05:09:18;;;;;;;18.37;16.33;;;14.70;91.90;;;;;;4953067;28;20203;-86
2021/07/04 05:11:44;;;;;;;23.97;16.37;;;14.80;92.00;;;;;;4952996;28;20211;-85
2021/07/04 05:14:11;;;;;;;22.87;15.57;;;14.90;92.10;;;;;;4953888;28;20175;-86
2021/07/04 05:16:38;;;;;;;18.53;16.53;;;15.10;92.00;;;;;;4952617;29;20186;-86
2021/07/04 05:19:06;;;;;;;22.47;16.10;;;15.20;92.10;;;;;;4954033;28;20715;-86
2021/07/04 05:21:33;;;;;;;18.03;16.17;;;15.30;91.80;;;;;;4953018;28;20270;-86
2021/07/04 05:24:01;;;;;;;15.93;14.23;;;15.50;91.80;;;;;;4954095;28;20176;-86
2021/07/04 05:26:27;;;;;;;20.07;15.30;;;15.60;91.70;;;;;;4952857;28;20222;-85
2021/07/04 05:28:53;;;;;;;16.90;15.17;;;15.70;91.80;;;;;;4954027;28;20195;-86
2021/07/04 05:31:19;;;;;;;17.90;14.90;;;15.90;91.40;;;;;;4954139;28;20195;-86
2021/07/04 05:33:44;;;;;;;16.17;13.63;;;16.10;91.40;;;;;;4954120;28;20580;-85
2021/07/04 05:36:10;;;;;;;15.67;12.37;;;16.30;91.40;;;;;;4952971;28;20171;-86
2021/07/04 05:38:38;;;;;;;14.15;11.38;;;16.40;90.70;;;;;;4952853;29;20756;-85
2021/07/04 05:41:04;;;;;;;15.23;10.85;;;16.60;90.70;;;;;;4952726;28;20207;-86
2021/07/04 05:43:30;;;;;;;13.80;9.63;;;16.80;90.20;;;;;;4953988;28;20695;-86
2021/07/04 05:45:59;;;;;;;12.35;10.77;;;16.90;89.80;;;;;;4968809;28;20203;-86
2021/07/04 05:48:25;;;;;;;10.35;9.27;;;17.10;89.70;;;;;;4953911;28;20266;-86
2021/07/04 05:50:51;;;;;;;9.60;8.57;;;17.20;89.00;;;;;;4953936;28;20175;-86
2021/07/04 05:53:16;;;;;;;10.18;9.10;;;17.30;88.40;;;;;;4968778;28;20253;-86
2021/07/04 05:55:43;;;;;;;10.02;8.18;;;17.40;88.60;;;;;;4954215;28;20179;-86
2021/07/04 05:58:09;;;;;;;9.30;8.40;;;17.60;87.60;;;;;;4953871;28;20171;-85
2021/07/04 06:00:36;;;;;;;8.45;7.60;;;17.70;87.10;;;;;;4952579;28;20550;-86
2021/07/04 06:03:02;;;;;;;11.48;8.15;;;17.80;87.50;;;;;;4968767;28;20191;-86
2021/07/04 06:05:28;;;;;;;10.57;7.75;;;18.10;87.80;;;;;;4953965;28;20722;-86
2021/07/04 06:07:53;;;;;;;9.13;7.13;;;18.30;87.20;;;;;;4954006;28;20207;-86
2021/07/04 06:10:19;;;;;;;8.43;7.38;;;18.30;86.10;;;;;;4954274;28;20195;-86
2021/07/04 06:12:44;;;;;;;7.93;7.22;;;18.50;86.10;;;;;;4954137;28;20678;-86
2021/07/04 06:15:11;;;;;;;9.63;6.57;;;18.70;85.40;;;;;;4954572;28;20167;-86
2021/07/04 06:17:37;;;;;;;7.13;6.15;;;18.80;85.20;;;;;;4954227;28;20172;-86
2021/07/04 06:20:08;;;;;;;8.68;6.53;;;18.90;84.20;;;;;;4953540;28;20218;-86
2021/07/04 06:22:35;;;;;;;6.55;5.88;;;19.10;84.70;;;;;;4967994;28;20187;-86
2021/07/04 06:25:03;;;;;;;6.40;5.45;;;19.20;84.50;;;;;;4953141;28;20195;-86
2021/07/04 06:27:28;;;;;;;6.65;5.65;;;19.30;83.30;;;;;;4953064;28;20183;-86
2021/07/04 06:29:54;;;;;;;7.57;5.57;;;19.50;83.00;;;;;;4967926;28;20589;-86
2021/07/04 06:32:19;;;;;;;5.78;4.93;;;19.60;81.40;;;;;;4951919;28;20207;-86
2021/07/04 06:34:45;;;;;;;11.05;5.28;;;19.70;81.30;;;;;;4953079;28;20198;-87
2021/07/04 06:37:11;;;;;;;5.40;4.38;;;19.70;81.20;;;;;;4953297;28;20207;-86
2021/07/04 06:39:36;;;;;;;7.00;4.55;;;19.80;80.90;;;;;;4951727;28;20627;-86
2021/07/04 06:42:02;;;;;;;6.43;4.88;;;20.00;81.30;;;;;;4953225;28;20175;-86
2021/07/04 06:44:28;;;;;;;5.15;4.35;;;20.00;80.20;;;;;;4951736;28;20183;-86
2021/07/04 06:46:54;;;;;;;4.45;4.03;;;20.10;78.80;;;;;;4951658;28;20225;-86
2021/07/04 06:49:19;;;;;;;7.47;4.70;;;20.20;77.70;;;;;;4952821;28;20675;-86
2021/07/04 06:51:45;;;;;;;5.13;4.60;;;20.10;78.90;;;;;;4952698;28;20195;-86
2021/07/04 06:54:11;;;;;;;4.75;4.22;;;20.20;79.50;;;;;;4953060;28;20266;-86
2021/07/04 06:56:36;;;;;;;7.15;3.90;;;20.30;77.50;;;;;;4967929;28;20175;-86
2021/07/04 06:59:02;;;;;;;4.72;4.28;;;20.30;78.00;;;;;;4951446;28;20207;-87
2021/07/04 07:01:27;;;;;;;3.67;3.38;;;20.40;77.10;;;;;;4952693;28;20221;-87
2021/07/04 07:03:54;;;;;;;4.85;3.58;;;20.50;76.70;;;;;;4951487;28;20184;-86
2021/07/04 07:06:20;;;;;;;4.88;3.88;;;20.80;75.90;;;;;;4952621;28;20175;-86
2021/07/04 07:08:47;;;;;;;6.82;3.80;;;20.90;74.80;;;;;;4952515;28;20248;-86
2021/07/04 07:11:13;;;;;;;4.35;3.78;;;20.70;74.40;;;;;;4952471;28;20171;-86
2021/07/04 07:13:39;;;;;;;5.93;3.53;;;20.80;75.60;;;;;;4952793;28;20175;-86
2021/07/04 07:16:05;;;;;;;6.85;3.47;;;20.80;74.90;;;;;;4952530;28;20597;-86
2021/07/04 07:18:30;;;;;;;4.38;3.97;;;20.90;75.70;;;;;;4952302;28;20210;-86
2021/07/04 07:20:56;;;;;;;4.72;3.70;;;21.20;74.20;;;;;;4952431;28;20246;-86
2021/07/04 07:23:22;;;;;;;3.95;3.60;;;21.30;73.20;;;;;;4967271;28;20222;-86
2021/07/04 07:25:48;;;;;;;4.68;3.63;;;21.40;73.00;;;;;;4952296;28;20175;-86
2021/07/04 07:28:13;;;;;;;4.75;3.92;;;21.60;72.60;;;;;;4952294;28;20179;-86
2021/07/04 07:30:39;;;;;;;4.07;3.65;;;21.70;71.80;;;;;;4967210;28;20659;-86
2021/07/04 07:33:05;;;;;;;4.22;3.83;;;21.50;70.70;;;;;;4952169;28;20229;-86
2021/07/04 07:35:32;;;;;;;5.40;3.20;;;21.30;71.00;;;;;;4952232;28;20207;-86
2021/07/04 07:38:01;;;;;;;6.03;3.92;;;21.20;69.70;;;;;;4967762;28;20270;-86
2021/07/04 07:40:29;;;;;;;5.05;3.70;;;21.10;70.80;;;;;;4955873;28;20172;-86
2021/07/04 07:42:56;;;;;;;4.38;3.83;;;21.00;68.90;;;;;;4955621;28;20172;-86
2021/07/04 07:45:22;;;;;;;5.22;4.22;;;20.90;70.70;;;;;;4970414;28;20190;-86
2021/07/04 07:47:48;;;;;;;3.92;3.45;;;21.10;71.10;;;;;;4955682;28;20255;-86
2021/07/04 07:50:14;;;;;;;7.68;4.13;;;21.20;70.00;;;;;;4955956;28;20201;-86
2021/07/04 07:52:40;;;;;;;5.40;4.00;;;21.30;70.90;;;;;;4955365;28;20302;-86
2021/07/04 07:55:07;;;;;;;6.65;3.67;;;21.30;69.70;;;;;;4955429;28;20179;-86
2021/07/04 07:57:33;;;;;;;4.00;3.60;;;21.30;69.00;;;;;;4955451;28;20176;-86
2021/07/04 07:59:58;;;;;;;4.70;3.58;;;21.40;71.40;;;;;;4955613;28;20245;-86
2021/07/04 08:02:24;;;;;;;4.47;4.07;;;21.50;71.10;;;;;;4970198;28;20270;-86
2021/07/04 08:04:50;;;;;;;3.58;3.28;;;21.50;70.80;;;;;;4970113;28;20229;-85
2021/07/04 08:07:15;;;;;;;5.82;4.00;;;21.60;67.90;;;;;;4955257;28;20266;-86
2021/07/04 08:09:41;;;;;;;4.65;3.63;;;21.60;69.20;;;;;;4955093;28;20203;-86
2021/07/04 08:12:07;;;;;;;4.40;3.40;;;21.80;70.70;;;;;;4955081;28;20202;-86
2021/07/04 08:14:33;;;;;;;4.82;3.95;;;21.80;69.60;;;;;;4954036;28;20187;-86
2021/07/04 08:16:58;;;;;;;4.18;3.78;;;22.00;69.60;;;;;;4955095;28;20175;-86
2021/07/04 08:19:24;;;;;;;4.25;3.83;;;22.10;69.30;;;;;;4954943;28;20321;-86
2021/07/04 08:21:49;;;;;;;5.85;3.70;;;22.10;68.60;;;;;;4953731;28;20270;-86
2021/07/04 08:24:15;;;;;;;5.90;4.40;;;22.30;69.60;;;;;;4953692;28;20191;-86
2021/07/04 08:26:41;;;;;;;4.80;4.30;;;22.30;66.50;;;;;;4954964;28;20172;-86
2021/07/04 08:29:06;;;;;;;4.78;4.18;;;22.50;68.00;;;;;;4954827;28;20196;-86
2021/07/04 08:31:32;;;;;;;5.22;4.00;;;22.70;67.90;;;;;;4954798;28;20199;-86
2021/07/04 08:33:58;;;;;;;5.75;4.28;;;22.70;66.30;;;;;;4953595;28;20187;-86
2021/07/04 08:36:30;;;;;;;7.65;3.80;;;22.80;66.50;;;;;;4954803;28;20172;-86
2021/07/04 08:38:56;;;;;;;5.95;4.75;;;22.70;65.70;;;;;;4954720;28;20211;-86
2021/07/04 08:41:22;;;;;;;4.97;4.30;;;22.80;66.20;;;;;;4954991;28;20175;-86
2021/07/04 08:43:48;;;;;;;6.40;4.78;;;22.70;64.30;;;;;;4955110;28;20176;-86
2021/07/04 08:46:13;;;;;;;5.15;4.25;;;23.00;66.90;;;;;;4954530;28;20185;-86
2021/07/04 08:48:41;;;;;;;7.45;4.45;;;23.20;64.80;;;;;;4954352;28;20191;-86
2021/07/04 08:51:08;;;;;;;6.97;4.47;;;23.20;64.70;;;;;;4953534;28;20179;-86
2021/07/04 08:53:34;;;;;;;5.35;4.70;;;23.30;64.30;;;;;;4954490;28;20164;-87
2021/07/04 08:56:00;;;;;;;5.40;4.43;;;23.40;65.50;;;;;;4969367;28;20190;-86
2021/07/04 08:58:27;;;;;;;4.50;3.75;;;23.40;63.90;;;;;;4954384;28;20240;-86
2021/07/04 09:01:13;;;;;;;5.03;4.15;;;23.70;63.90;;;;;;4969321;28;20211;-86
2021/07/04 09:03:41;;;;;;;7.00;4.80;;;23.80;64.00;;;;;;4954354;28;20559;-86
2021/07/04 09:06:07;;;;;;;7.60;4.72;;;23.70;60.70;;;;;;4954299;28;20640;-86
2021/07/04 09:08:32;;;;;;;4.95;4.43;;;23.40;62.40;;;;;;4954260;28;20210;-86
2021/07/04 09:11:18;;;;;;;6.32;4.78;;;23.20;65.10;;;;;;4969173;28;20288;-86
2021/07/04 09:13:46;;;;;;;5.55;4.28;;;23.10;66.60;;;;;;4969135;28;20190;-86
2021/07/04 09:16:15;;;;;;;5.85;4.82;;;23.00;64.50;;;;;;4954124;28;20182;-86
2021/07/04 09:18:41;;;;;;;9.10;4.70;;;22.90;64.60;;;;;;4954057;28;20210;-86
2021/07/04 09:21:16;;;;;;;7.50;4.18;;;22.80;65.60;;;;;;4954153;28;20176;-87
2021/07/04 09:23:42;;;;;;;5.00;4.10;;;23.00;65.40;;;;;;4954277;28;20175;-86
2021/07/04 09:26:27;;;;;;;7.63;4.32;;;23.00;65.50;;;;;;4953962;28;20237;-87
2021/07/04 09:28:53;;;;;;;3.92;3.63;;;23.10;65.00;;;;;;4953518;28;20617;-86
2021/07/04 09:31:19;;;;;;;4.97;4.43;;;23.00;66.80;;;;;;4953900;28;20252;-86
2021/07/04 09:33:44;;;;;;;5.72;4.57;;;23.20;66.00;;;;;;4954075;28;20585;-86
2021/07/04 09:36:10;;;;;;;5.20;4.70;;;23.10;64.70;;;;;;4952458;28;20585;-86
2021/07/04 09:38:38;;;;;;;6.85;3.85;;;23.20;64.60;;;;;;4952326;28;20199;-86
2021/07/04 09:41:07;;;;;;;4.68;4.20;;;23.00;65.70;;;;;;4952419;28;20651;-86
2021/07/04 09:43:34;;;;;;;5.80;5.00;;;22.90;66.30;;;;;;4953620;28;20179;-86
2021/07/04 09:46:04;;;;;;;6.18;5.35;;;23.00;65.70;;;;;;4968544;28;20309;-86
2021/07/04 09:48:30;;;;;;;6.57;5.38;;;22.80;65.00;;;;;;4968318;28;20575;-86
2021/07/04 09:50:58;;;;;;;6.47;4.82;;;23.00;64.90;;;;;;4953463;28;20168;-86
2021/07/04 09:53:34;;;;;;;5.25;4.75;;;23.20;63.30;;;;;;4952186;28;20695;-86
2021/07/04 09:56:13;;;;;;;6.55;4.80;;;23.30;66.00;;;;;;4953453;28;20262;-86
2021/07/04 09:58:41;;;;;;;5.57;4.30;;;23.50;65.10;;;;;;4953328;28;20198;-86
2021/07/04 10:01:07;;;;;;;6.07;5.28;;;23.70;63.20;;;;;;4953011;28;20174;-86
2021/07/04 10:03:39;;;;;;;5.80;5.30;;;23.50;62.30;;;;;;4953509;28;20176;-86
2021/07/04 10:06:08;;;;;;;6.57;5.03;;;23.50;63.10;;;;;;4953294;28;20623;-86
2021/07/04 10:08:36;;;;;;;5.63;5.13;;;23.30;63.60;;;;;;4953190;28;20572;-86
2021/07/04 10:11:14;;;;;;;8.80;5.60;;;23.20;63.70;;;;;;4953142;28;20179;-86
2021/07/04 10:13:42;;;;;;;6.72;5.25;;;23.00;65.10;;;;;;4953300;28;20164;-86
2021/07/04 10:16:13;;;;;;;8.13;6.10;;;22.90;66.50;;;;;;4952073;28;20705;-86
2021/07/04 10:18:42;;;;;;;6.25;5.40;;;22.90;65.00;;;;;;4967963;28;20208;-86
2021/07/04 10:21:08;;;;;;;5.65;5.00;;;22.80;66.90;;;;;;4953272;28;20175;-86
2021/07/04 10:23:35;;;;;;;7.32;5.07;;;22.90;67.00;;;;;;4953084;28;20635;-86
2021/07/04 10:26:02;;;;;;;21.63;6.63;;;22.90;66.30;;;;;;4953094;28;20218;-86
2021/07/04 10:28:36;;;;;;;7.78;5.38;;;22.90;66.90;;;;;;4951677;28;20195;-86
2021/07/04 10:31:11;;;;;;;6.15;5.05;;;23.00;67.20;;;;;;4953186;28;20582;-86
2021/07/04 10:33:37;;;;;;;6.57;5.15;;;23.20;65.80;;;;;;4968155;28;20634;-86
2021/07/04 10:36:06;;;;;;;8.07;4.97;;;23.20;66.30;;;;;;4952950;28;20179;-86
2021/07/04 10:38:56;;;;;;;5.68;5.18;;;23.50;64.80;;;;;;4952941;28;20188;-86
2021/07/04 10:41:28;;;;;;;6.00;5.18;;;23.40;64.00;;;;;;4951743;28;20254;-86
2021/07/04 10:43:57;;;;;;;7.70;4.97;;;23.20;64.90;;;;;;4953139;28;20600;-86
2021/07/04 10:46:44;;;;;;;11.55;5.72;;;23.40;63.60;;;;;;4952950;28;20541;-85
2021/07/04 10:49:10;;;;;;;7.57;6.82;;;23.20;64.40;;;;;;4952941;28;20207;-85
2021/07/04 10:51:52;;;;;;;6.20;5.60;;;23.40;64.10;;;;;;4953645;28;20619;-85
2021/07/04 10:54:44;;;;;;;7.07;5.43;;;23.60;62.80;;;;;;4952926;28;20160;-86
2021/07/04 10:57:10;;;;;;;8.98;5.40;;;24.00;64.60;;;;;;4952606;28;20152;-86
2021/07/04 11:00:10;;;;;;;8.65;5.50;;;24.00;64.10;;;;;;4951250;28;20198;-86
2021/07/04 11:02:46;;;;;;;6.78;5.20;;;24.30;63.40;;;;;;4952484;28;20184;-86
2021/07/04 11:05:13;;;;;;;5.93;5.32;;;23.70;60.50;;;;;;4951617;29;20185;-87
2021/07/04 11:07:54;;;;;;;7.13;5.47;;;23.80;62.50;;;;;;4952700;28;20168;-87
2021/07/04 11:10:31;;;;;;;6.03;5.10;;;24.40;62.30;;;;;;4952632;28;20253;-86
2021/07/04 11:13:16;;;;;;;6.65;4.70;;;24.90;63.00;;;;;;4951981;28;20199;-88
2021/07/04 11:15:50;;;;;;;8.63;5.00;;;24.60;60.20;;;;;;4953310;28;20179;-87
2021/07/04 11:18:17;;;;;;;6.22;5.30;;;24.70;60.80;;;;;;4952493;28;20166;-87
2021/07/04 11:20:44;;;;;;;6.22;4.93;;;24.90;60.20;;;;;;4952285;28;20164;-87
2021/07/04 11:23:28;;;;;;;6.45;5.25;;;24.90;59.90;;;;;;4952296;28;20175;-87
2021/07/04 11:26:09;;;;;;;5.60;5.05;;;24.90;60.40;;;;;;4952386;28;20178;-87
2021/07/04 11:28:44;;;;;;;6.22;4.78;;;25.20;60.10;;;;;;4967003;28;20203;-86
2021/07/04 11:31:13;;;;;;;5.38;4.85;;;25.30;60.30;;;;;;4952372;28;20238;-87
2021/07/04 11:33:47;;;;;;;6.68;5.53;;;25.40;59.40;;;;;;4952180;28;20187;-87
2021/07/04 11:36:15;;;;;;;5.47;4.72;;;25.60;60.80;;;;;;4952104;28;20186;-87
2021/07/04 11:38:50;;;;;;;7.07;5.10;;;25.30;59.00;;;;;;4950655;28;20743;-87
2021/07/04 11:41:32;;;;;;;6.75;4.70;;;25.50;59.30;;;;;;4951944;28;20643;-86
2021/07/04 11:43:59;;;;;;;6.75;6.07;;;25.70;60.40;;;;;;4951771;28;20184;-86
2021/07/04 11:46:27;;;;;;;6.53;5.70;;;25.80;59.90;;;;;;4951962;28;20643;-85
2021/07/04 11:49:11;;;;;;;6.50;5.60;;;25.50;61.20;;;;;;4952145;28;20196;-86
2021/07/04 11:51:52;;;;;;;9.05;5.97;;;25.90;60.50;;;;;;4951813;28;20294;-88
2021/07/04 11:54:19;;;;;;;8.95;6.18;;;26.20;60.20;;;;;;4966855;28;20266;-88
2021/07/04 11:56:56;;;;;;;5.82;5.30;;;26.30;57.90;;;;;;4966938;28;20637;-88
2021/07/04 11:59:24;;;;;;;5.65;5.10;;;26.50;58.40;;;;;;4952206;28;20621;-88
2021/07/04 12:01:54;;;;;;;6.53;5.72;;;27.00;56.50;;;;;;4952269;28;20175;-88
2021/07/04 12:04:32;;;;;;;5.80;5.20;;;26.40;56.60;;;;;;4951805;28;20234;-89
2021/07/04 12:07:03;;;;;;;8.48;5.40;;;26.30;58.60;;;;;;4966494;28;20534;-89
2021/07/04 12:09:37;;;;;;;10.80;5.50;;;26.00;60.70;;;;;;4967041;28;20203;-88
2021/07/04 12:12:04;;;;;;;6.38;5.47;;;26.20;60.80;;;;;;4951791;28;20248;-88
2021/07/04 12:14:32;;;;;;;6.40;5.80;;;26.00;59.90;;;;;;4952106;28;20222;-89
2021/07/04 12:17:17;;;;;;;8.35;5.85;;;25.90;59.70;;;;;;4950757;28;20172;-88
2021/07/04 12:19:49;;;;;;;7.03;6.03;;;25.80;61.40;;;;;;4951796;28;20199;-88
2021/07/04 12:22:22;;;;;;;7.22;5.20;;;25.60;60.30;;;;;;4967001;28;20313;-88
2021/07/04 12:24:48;;;;;;;9.60;6.60;;;25.30;62.60;;;;;;4952175;28;20178;-88
2021/07/04 12:27:14;;;;;;;6.75;6.15;;;25.20;62.60;;;;;;4954939;28;20183;-89
2021/07/04 12:30:05;;;;;;;8.77;5.70;;;25.30;62.10;;;;;;4954721;28;20223;-88
2021/07/04 12:32:51;;;;;;;9.77;6.85;;;25.30;63.70;;;;;;4953529;28;20210;-88
2021/07/04 12:35:20;;;;;;;8.23;6.03;;;25.60;61.60;;;;;;4955250;28;20671;-90
2021/07/04 12:37:46;;;;;;;11.32;7.00;;;25.60;62.20;;;;;;4955121;28;20171;-89
2021/07/04 12:40:24;;;;;;;7.40;6.70;;;25.40;61.60;;;;;;4969550;28;20195;-88
2021/07/04 12:42:49;;;;;;;7.30;6.60;;;25.00;62.40;;;;;;4954946;28;20175;-88
2021/07/04 12:45:20;;;;;;;9.55;6.03;;;24.70;62.20;;;;;;4954959;28;20202;-89
2021/07/04 12:47:58;;;;;;;9.25;5.95;;;24.60;63.60;;;;;;4955056;28;20266;-88